createdAt,value
2022-12-20T00:04:55.199Z,8.01
2022-12-20T00:11:18.226Z,8.06
2022-12-20T00:17:38.262Z,8.13
2022-12-20T00:24:01.312Z,8.17
2022-12-20T00:30:21.172Z,8.24
2022-12-20T00:36:44.247Z,8.21
2022-12-20T00:43:04.212Z,8.15
2022-12-20T00:49:27.258Z,8.1
2022-12-20T00:55:47.274Z,8.05
2022-12-20T01:02:10.319Z,8.04
2022-12-20T01:08:30.255Z,8.03
2022-12-20T01:14:53.351Z,8
2022-12-20T01:21:13.213Z,7.94
2022-12-20T01:27:36.216Z,7.86
2022-12-20T01:33:56.216Z,7.8
2022-12-20T01:40:20.128Z,7.76
2022-12-20T01:46:40.253Z,7.75
2022-12-20T01:53:03.348Z,7.76
2022-12-20T01:59:23.199Z,7.79
2022-12-20T02:05:46.246Z,7.8
2022-12-20T02:12:06.179Z,7.8
2022-12-20T02:18:29.166Z,7.81
2022-12-20T02:24:49.213Z,7.83
2022-12-20T02:31:12.276Z,7.82
2022-12-20T02:37:32.203Z,7.8
2022-12-20T02:43:55.251Z,7.82
2022-12-20T02:50:15.268Z,7.83
2022-12-20T02:56:38.221Z,7.84
2022-12-20T03:02:58.254Z,7.81
2022-12-20T03:09:21.432Z,7.77
2022-12-20T03:15:41.264Z,7.74
2022-12-20T03:22:04.241Z,7.72
2022-12-20T03:28:24.257Z,7.75
2022-12-20T03:34:47.316Z,7.77
2022-12-20T03:41:07.198Z,7.81
2022-12-20T03:47:30.268Z,7.84
2022-12-20T03:53:50.195Z,7.87
2022-12-20T04:00:13.224Z,7.91
2022-12-20T04:06:33.217Z,7.95
2022-12-20T04:12:56.193Z,7.99
2022-12-20T04:29:57.108Z,7.96
2022-12-20T04:36:20.179Z,7.94
2022-12-20T04:42:40.179Z,7.91
2022-12-20T04:49:03.211Z,7.89
2022-12-20T04:55:23.190Z,7.88
2022-12-20T05:01:46.253Z,7.88
2022-12-20T05:08:06.255Z,7.89
2022-12-20T05:14:29.200Z,7.91
2022-12-20T05:20:49.189Z,7.91
2022-12-20T05:27:12.301Z,7.92
2022-12-20T05:33:34.299Z,7.9
2022-12-20T05:39:55.343Z,7.87
2022-12-20T05:46:15.268Z,7.85
2022-12-20T05:52:38.156Z,7.85
2022-12-20T05:58:58.215Z,7.88
2022-12-20T06:05:21.199Z,7.89
2022-12-20T06:11:41.194Z,7.89
2022-12-20T06:18:04.266Z,7.91
2022-12-20T06:24:24.239Z,7.93
2022-12-20T06:30:47.263Z,7.97
2022-12-20T06:37:07.177Z,8
2022-12-20T06:43:30.203Z,8.03
2022-12-20T06:49:50.184Z,8.08
2022-12-20T06:56:13.233Z,8.13
2022-12-20T07:02:33.596Z,8.17
2022-12-20T07:08:56.206Z,8.21
2022-12-20T07:15:16.306Z,8.23
2022-12-20T07:21:39.199Z,8.24
2022-12-20T07:27:59.188Z,8.24
2022-12-20T07:34:22.236Z,8.21
2022-12-20T07:40:42.268Z,8.19
2022-12-20T07:47:05.202Z,8.18
2022-12-20T07:53:25.240Z,8.19
2022-12-20T07:59:48.200Z,8.2
2022-12-20T08:06:08.199Z,8.2
2022-12-20T08:12:31.211Z,8.19
2022-12-20T08:18:51.290Z,8.2
2022-12-20T08:25:14.210Z,8.22
2022-12-20T08:31:34.182Z,8.24
2022-12-20T08:37:57.254Z,8.29
2022-12-20T08:44:17.200Z,8.33
2022-12-20T08:50:40.210Z,8.37
2022-12-20T08:57:00.259Z,8.42
2022-12-20T09:03:23.213Z,8.49
2022-12-20T09:09:43.221Z,8.55
2022-12-20T09:16:06.355Z,8.59
2022-12-20T09:22:26.238Z,8.62
2022-12-20T09:46:28.714Z,8.63
2022-12-20T09:52:48.190Z,8.65
2022-12-20T09:59:11.275Z,8.69
2022-12-20T10:05:35.655Z,8.74
2022-12-20T10:11:54.186Z,8.78
2022-12-20T10:18:14.173Z,8.83
2022-12-20T10:24:37.225Z,8.84
2022-12-20T10:30:57.244Z,8.84
2022-12-20T10:37:20.171Z,8.86
2022-12-20T10:43:40.294Z,8.89
2022-12-20T10:50:03.243Z,8.93
2022-12-20T10:56:23.180Z,8.97
2022-12-20T11:02:46.367Z,8.99
2022-12-20T11:09:06.162Z,9
2022-12-20T11:15:34.004Z,9
2022-12-20T11:21:49.553Z,9.04
2022-12-20T11:28:12.219Z,9.07
2022-12-20T11:34:32.355Z,9.13
2022-12-20T11:40:55.189Z,9.16
2022-12-20T11:47:15.315Z,9.2
2022-12-20T11:53:38.195Z,9.23
2022-12-20T11:59:58.246Z,9.27
2022-12-20T12:06:21.265Z,9.33
2022-12-20T12:12:41.164Z,9.41
2022-12-20T12:19:04.245Z,9.43
2022-12-20T12:25:24.198Z,9.42
2022-12-20T12:31:47.237Z,9.4
2022-12-20T12:38:07.206Z,9.4
2022-12-20T12:44:30.461Z,9.4
2022-12-20T12:50:50.200Z,9.39
2022-12-20T12:57:13.261Z,9.4
2022-12-20T13:03:33.258Z,9.43
2022-12-20T13:09:56.189Z,9.46
2022-12-20T13:16:16.349Z,9.5
2022-12-20T13:22:39.192Z,9.56
2022-12-20T13:28:59.164Z,9.64
2022-12-20T13:35:22.255Z,9.7
2022-12-20T13:41:42.182Z,9.69
2022-12-20T13:48:11.048Z,9.67
2022-12-20T13:54:27.467Z,9.62
2022-12-20T14:00:48.177Z,9.58
2022-12-20T14:07:08.231Z,9.54
2022-12-20T14:13:31.490Z,9.49
2022-12-20T14:19:51.537Z,9.45
2022-12-20T14:26:14.175Z,9.44
2022-12-20T14:32:34.241Z,9.45
2022-12-20T14:48:08.112Z,9.51
2022-12-20T14:55:06.119Z,9.53
2022-12-20T15:00:51.165Z,9.53
2022-12-20T15:07:11.203Z,9.51
2022-12-20T15:13:34.145Z,9.51
2022-12-20T15:19:54.275Z,9.48
2022-12-20T15:26:17.242Z,9.44
2022-12-20T15:32:38.716Z,9.41
2022-12-20T15:39:15.795Z,9.38
2022-12-20T15:45:20.209Z,9.35
2022-12-20T15:51:43.311Z,9.32
2022-12-20T15:58:03.227Z,9.28
2022-12-20T16:04:26.255Z,9.24
2022-12-20T16:10:46.750Z,9.22
2022-12-20T16:17:10.174Z,9.21
2022-12-20T16:23:30.249Z,9.22
2022-12-20T16:29:53.270Z,9.22
2022-12-20T16:36:13.210Z,9.3
2022-12-20T16:42:36.257Z,9.45
2022-12-20T16:48:56.552Z,9.62
2022-12-20T16:55:19.283Z,9.77
2022-12-20T17:01:39.338Z,9.83
2022-12-20T17:08:03.260Z,9.79
2022-12-20T17:14:59.255Z,9.69
2022-12-20T17:21:22.236Z,9.59
2022-12-20T17:28:07.262Z,9.5
2022-12-20T17:34:30.294Z,9.45
2022-12-20T17:40:50.216Z,9.41
2022-12-20T17:47:13.167Z,9.39
2022-12-20T17:53:33.171Z,9.33
2022-12-20T17:59:56.511Z,9.26
2022-12-20T18:06:16.165Z,9.18
2022-12-20T18:12:39.153Z,9.17
2022-12-20T18:18:59.275Z,9.16
2022-12-20T18:25:22.158Z,9.14
2022-12-20T18:31:42.234Z,9.13
2022-12-20T18:38:05.236Z,9.13
2022-12-20T18:44:25.227Z,9.11
2022-12-20T18:50:48.203Z,9.1
2022-12-20T18:57:08.239Z,9.16
2022-12-20T19:03:31.311Z,9.25
2022-12-20T19:09:51.176Z,9.28
2022-12-20T19:16:14.299Z,9.3
2022-12-20T19:22:34.188Z,9.35
2022-12-20T19:28:57.374Z,9.35
2022-12-20T19:35:53.217Z,9.32
2022-12-20T19:41:40.183Z,9.28
2022-12-20T19:48:00.225Z,9.24
2022-12-20T20:05:08.266Z,9.23
2022-12-20T20:11:25.171Z,9.19
2022-12-20T20:17:48.160Z,9.19
2022-12-20T20:24:08.248Z,9.21
2022-12-20T20:30:31.155Z,9.22
2022-12-20T20:36:51.192Z,9.19
2022-12-20T20:43:14.179Z,9.17
2022-12-20T20:49:34.152Z,9.16
2022-12-20T20:55:57.229Z,9.22
2022-12-20T21:02:17.294Z,9.29
2022-12-20T21:08:40.177Z,9.37
2022-12-20T21:15:21.646Z,9.58
2022-12-20T21:21:23.177Z,9.77
2022-12-20T21:27:43.207Z,9.94
2022-12-20T21:34:06.186Z,10.08
2022-12-20T21:40:26.306Z,10.17
2022-12-20T21:46:49.222Z,10.21
2022-12-20T21:53:12.832Z,10.22
2022-12-20T21:59:32.223Z,10.2
2022-12-20T22:05:52.173Z,10.22
2022-12-20T22:12:15.192Z,10.28
2022-12-20T22:18:35.174Z,10.32
2022-12-20T22:24:58.216Z,10.36
2022-12-20T22:31:18.424Z,10.4
2022-12-20T22:37:41.191Z,10.38
2022-12-20T22:44:01.217Z,10.4
2022-12-20T22:50:24.153Z,10.41
2022-12-20T22:56:44.242Z,10.32
2022-12-20T23:21:01.200Z,9.9
2022-12-20T23:27:21.174Z,9.9
2022-12-20T23:33:44.221Z,9.95
2022-12-20T23:40:04.302Z,10.05
2022-12-20T23:46:27.247Z,10.1
2022-12-20T23:52:47.194Z,10.1
2022-12-20T23:59:10.218Z,10.07
